CheckWX is a tool to help pilots better visualize weather data.  It is not intended as a substitute for an official pre-flight weather briefing.

16:29:46 UTC

KMCI TAF
Kansas City International Airport
Kansas City, Missouri, USA
KMCI 281728Z 2818/2918 31006KT 4SM -RA BR SCT006 OVC011 TEMPO 2818/2821 2SM RA BR BKN006 FM282200 02005KT P6SM VCSH OVC020 FM290100 02005KT P6SM BKN200 FM291200 VRB04KT P6SM FEW250

May-28@
18:00 UTC

May-28 @ 18:00 UTC

May-28@
22:00 UTC

May-28 @ 22:00 UTC

TAF KMCI 281728Z 2818/2918 31006KT 4SM -RA BR SCT006 OVC011

Expired

Wind
  • 310° at 6 KTS
Conditions
Light Rain, Mist
Cloud Levels
  • Scattered at 600' AGL
  • Overcast at 1,100' AGL

May-28@
18:00 UTC

May-28 @ 18:00 UTC

May-28@
21:00 UTC

May-28 @ 21:00 UTC

TEMPO 2818/2821 2SM RA BR BKN006

Expired

Conditions
Rain, Mist
Cloud Levels
  • Broken at 600' AGL

May-28@
22:00 UTC

May-28 @ 22:00 UTC

May-29@
01:00 UTC

May-29 @ 01:00 UTC

FM282200 02005KT P6SM VCSH OVC020

Expired

Wind
  • 020° at 5 KTS
Conditions
Area Showers
Cloud Levels
  • Overcast at 2,000' AGL

May-29@
01:00 UTC

May-29 @ 01:00 UTC

May-29@
12:00 UTC

May-29 @ 12:00 UTC

FM290100 02005KT P6SM BKN200

Expired

Wind
  • 020° at 5 KTS
Cloud Levels
  • Broken at 20,000' AGL

May-29@
12:00 UTC

May-29 @ 12:00 UTC

May-29@
18:00 UTC

May-29 @ 18:00 UTC

FM291200 VRB04KT P6SM FEW250

From

From Standard forecast or significant change

Wind
  • Variable at 4 KTS
Cloud Levels
  • Few at 25,000' AGL